ムルマンスク の空港の天気 - METARとTAF

ムルマンスク空港 ( ULMM / MMK ) - ロシア ムルマンスク
飛行場実況気象(Metar)
観測時間08/17 06:00 MSK (08/17 03:00 UTC)
風向・風速南南東 4m/s
視程10km以上
天気現象
全天の4割程度の雲 雲底高度 1220m
気温13℃
湿度77%
気圧1012hPa
METARULMM 170300Z 16004MPS 9999 SCT040 13/09 Q1012 R13/090070 NOSIG RMK QFE752
過去の天気等 Google飛行場航空写真 Wunderground天気予報

過去48時間のMETAR

飛行場予報(TAF)
発表時間: 8/17 04:57 MSK (8/17 01:57 UTC)
予報対象時間: 17日6時 MSK ~ 18日6時 MSK
風向・風速南 3m/s 瞬間風速 8m/s
視程10km以上
全天の8割程度の雲 雲底高度 340m
17日6時 MSK ~ 17日11時 MSK に一時的に
風向・風速南南西 5m/s 瞬間風速 11m/s
視程3,100m
天気現象弱いしゅう雨 もや
全天の8割程度の積乱雲 雲底高度 340m
17日11時 MSK ~ 17日12時 MSK に徐々に
風向・風速西南西 4m/s 瞬間風速 10m/s
17日12時 MSK ~ 17日21時 MSK に一時的に
風向・風速南南西 7m/s 瞬間風速 14m/s
視程3,100m
天気現象弱いしゅう雨
全天の8割程度の積乱雲 雲底高度 340m
17日21時 MSK ~ 17日22時 MSK に徐々に
風向・風速西南西 3m/s 瞬間風速 8m/s
17日22時 MSK ~ 18日6時 MSK に一時的に
風向・風速西北西 5m/s 瞬間風速 10m/s
視程1,200m
天気現象弱いしゅう雨 もや
全天の8割程度の雲 雲底高度 150m
全天の8割程度の積乱雲 雲底高度 400m
TAF ULMM 170157Z 1703/1803 17003G08MPS 9999 BKN011
TEMPO 1703/1708 21005G11MPS 3100 -SHRA BR BKN011CB
BECMG 1708/1709 25004G10MPS
TEMPO 1709/1718 21007G14MPS 3100 -SHRA BKN011CB
BECMG 1718/1719 25003G08MPS
TEMPO 1719/1803 30005G10MPS 1200 -SHRA BR BKN005 BKN013CB